This is the latest recevied weather packets stored in our database for station/object WY1U-1. If no packets are shown the sender has not sent any weather packets the latest 10 day(s).
| Time | Temp. | Humidity | Pressure | Rain* | Wind** | Luminosity | Snow |
|---|---|---|---|---|---|---|---|
| 1777775512 | 10° C | 57% | 1011.7 hPa | 0 mm | - | - | - |
| 1777770110 | 11.67° C | 60% | 1011.4 hPa | 0 mm | - | - | - |
| 1777768309 | 11.67° C | 61% | 1010.9 hPa | 0 mm | - | - | - |
| 1777766512 | 12.78° C | 57% | 1010.7 hPa | 0 mm | - | - | - |
| 1777762911 | 14.44° C | 53% | 1010.4 hPa | 0 mm | - | - | - |
| 1777734111 | 13.89° C | 72% | 1012 hPa | 0 mm | - | - | - |
| 1777726911 | 11.11° C | 89% | 1012.2 hPa | 0 mm | - | - | - |
| 1777719711 | 9.44° C | 94% | 1012.9 hPa | 0 mm | - | - | - |
| 1777712511 | 10° C | 90% | 1011.9 hPa | 0 mm | - | - | - |
| 1777708911 | 10° C | 88% | 1011.7 hPa | 0 mm | - | - | - |
| 1777701710 | 10.56° C | 81% | 1012 hPa | 0 mm | - | - | - |
| 1777698111 | 11.11° C | 76% | 1012.2 hPa | 0 mm | - | - | - |
| 1777694512 | 11.67° C | 73% | 1012.4 hPa | 0 mm | - | - | - |
| 1777690911 | 12.22° C | 70% | 1012.5 hPa | 0 mm | - | - | - |
| 1777683712 | 12.78° C | 66% | 1012.2 hPa | 0 mm | - | - | - |
| 1777680111 | 13.89° C | 58% | 1011.2 hPa | 0 mm | - | - | - |
| 1777672912 | 18.89° C | 36% | 1010.2 hPa | 0 mm | - | - | - |
| 1777665710 | 17.22° C | 35% | 1010.3 hPa | 0 mm | - | - | - |
| 1777658512 | 16.67° C | 39% | 1011.2 hPa | 0 mm | - | - | - |
| 1777654913 | 15.56° C | 41% | 1011.4 hPa | 0 mm | - | - | - |
| 1777645910 | 12.78° C | 56% | 1012.4 hPa | 0 mm | - | - | - |
| 1777644110 | 12.22° C | 58% | 1012.5 hPa | 0 mm | - | - | - |
| 1777636910 | 8.89° C | 73% | 1012.5 hPa | 0 mm | - | - | - |
| 1777633312 | 7.22° C | 79% | 1012.2 hPa | 0 mm | - | - | - |
| 1777629712 | 6.11° C | 82% | 1011.5 hPa | 0 mm | - | - | - |
* Rain latest hour (hover to see other rain measurements)
** Current wind speed in m/s (hover to see current wind gust speed)